sensor_id;sensor_type;location;lat;lon;timestamp;pressure;altitude;pressure_sealevel;temperature;humidity
6200;BME280;3133;43.214;27.906;2023-08-08T00:00:39;100167.97;;;22.50;100.00
6200;BME280;3133;43.214;27.906;2023-08-08T00:03:07;100236.31;;;22.97;100.00
6200;BME280;3133;43.214;27.906;2023-08-08T00:05:36;100243.38;;;22.65;100.00
6200;BME280;3133;43.214;27.906;2023-08-08T00:08:03;100199.91;;;22.33;100.00
6200;BME280;3133;43.214;27.906;2023-08-08T00:10:30;100234.34;;;22.35;100.00
6200;BME280;3133;43.214;27.906;2023-08-08T00:12:57;100229.44;;;22.27;100.00
6200;BME280;3133;43.214;27.906;2023-08-08T00:15:24;100208.50;;;22.21;100.00
6200;BME280;3133;43.214;27.906;2023-08-08T00:17:50;100239.28;;;22.25;100.00
6200;BME280;3133;43.214;27.906;2023-08-08T00:20:17;100044.38;;;21.11;100.00
6200;BME280;3133;43.214;27.906;2023-08-08T00:22:46;100200.66;;;22.02;100.00
6200;BME280;3133;43.214;27.906;2023-08-08T00:25:12;100196.81;;;21.91;100.00
6200;BME280;3133;43.214;27.906;2023-08-08T00:27:40;100241.50;;;22.00;100.00
6200;BME280;3133;43.214;27.906;2023-08-08T00:30:10;100198.56;;;21.73;100.00
6200;BME280;3133;43.214;27.906;2023-08-08T00:32:37;100235.63;;;21.93;100.00
6200;BME280;3133;43.214;27.906;2023-08-08T00:35:05;100219.53;;;21.79;100.00
6200;BME280;3133;43.214;27.906;2023-08-08T00:37:32;100235.75;;;21.73;100.00
6200;BME280;3133;43.214;27.906;2023-08-08T00:40:00;100236.38;;;21.61;100.00
6200;BME280;3133;43.214;27.906;2023-08-08T00:42:27;100220.00;;;21.70;100.00
6200;BME280;3133;43.214;27.906;2023-08-08T00:44:54;100197.66;;;21.57;100.00
6200;BME280;3133;43.214;27.906;2023-08-08T00:47:27;100237.00;;;21.66;100.00
6200;BME280;3133;43.214;27.906;2023-08-08T00:49:54;100229.41;;;21.59;100.00
6200;BME280;3133;43.214;27.906;2023-08-08T00:52:22;100180.75;;;21.41;100.00
6200;BME280;3133;43.214;27.906;2023-08-08T00:54:50;100238.13;;;21.79;100.00
6200;BME280;3133;43.214;27.906;2023-08-08T00:57:19;100232.28;;;21.90;100.00
6200;BME280;3133;43.214;27.906;2023-08-08T00:59:47;100098.03;;;21.16;100.00
6200;BME280;3133;43.214;27.906;2023-08-08T01:02:14;100064.28;;;21.01;100.00
6200;BME280;3133;43.214;27.906;2023-08-08T01:04:41;100237.19;;;21.97;100.00
6200;BME280;3133;43.214;27.906;2023-08-08T01:07:14;100245.34;;;21.94;100.00
6200;BME280;3133;43.214;27.906;2023-08-08T01:09:48;100235.69;;;21.75;100.00
6200;BME280;3133;43.214;27.906;2023-08-08T01:12:15;100245.94;;;21.82;100.00
6200;BME280;3133;43.214;27.906;2023-08-08T01:14:44;100249.47;;;21.83;100.00
6200;BME280;3133;43.214;27.906;2023-08-08T01:17:11;100190.56;;;21.58;100.00
6200;BME280;3133;43.214;27.906;2023-08-08T01:19:39;100076.28;;;20.91;100.00
6200;BME280;3133;43.214;27.906;2023-08-08T01:22:09;100236.88;;;21.86;100.00
6200;BME280;3133;43.214;27.906;2023-08-08T01:24:42;100234.00;;;21.91;100.00
6200;BME280;3133;43.214;27.906;2023-08-08T01:27:10;100243.94;;;21.87;100.00
6200;BME280;3133;43.214;27.906;2023-08-08T01:29:37;100152.28;;;21.45;100.00
6200;BME280;3133;43.214;27.906;2023-08-08T01:32:05;100236.81;;;21.88;100.00
6200;BME280;3133;43.214;27.906;2023-08-08T01:34:34;100230.44;;;21.73;100.00
6200;BME280;3133;43.214;27.906;2023-08-08T01:37:07;100214.03;;;21.65;100.00
6200;BME280;3133;43.214;27.906;2023-08-08T01:39:37;100228.13;;;21.84;100.00
6200;BME280;3133;43.214;27.906;2023-08-08T01:42:07;100142.00;;;21.38;100.00
6200;BME280;3133;43.214;27.906;2023-08-08T01:44:34;100224.91;;;21.78;100.00
6200;BME280;3133;43.214;27.906;2023-08-08T01:47:02;100223.47;;;21.89;100.00
6200;BME280;3133;43.214;27.906;2023-08-08T01:49:29;100218.78;;;21.94;100.00
6200;BME280;3133;43.214;27.906;2023-08-08T01:51:56;100211.69;;;21.59;100.00
6200;BME280;3133;43.214;27.906;2023-08-08T01:54:23;100230.06;;;21.81;100.00
6200;BME280;3133;43.214;27.906;2023-08-08T01:56:50;100224.66;;;21.65;100.00
6200;BME280;3133;43.214;27.906;2023-08-08T01:59:18;100188.13;;;21.53;100.00
6200;BME280;3133;43.214;27.906;2023-08-08T02:01:45;100223.69;;;21.85;100.00
6200;BME280;3133;43.214;27.906;2023-08-08T02:04:11;100224.66;;;21.84;100.00
6200;BME280;3133;43.214;27.906;2023-08-08T02:06:38;100225.34;;;21.87;100.00
6200;BME280;3133;43.214;27.906;2023-08-08T02:09:05;100218.16;;;21.89;100.00
6200;BME280;3133;43.214;27.906;2023-08-08T02:11:32;100177.19;;;21.59;100.00
6200;BME280;3133;43.214;27.906;2023-08-08T02:13:59;100232.31;;;21.71;100.00
6200;BME280;3133;43.214;27.906;2023-08-08T02:16:27;100205.28;;;21.46;100.00
6200;BME280;3133;43.214;27.906;2023-08-08T02:18:54;100220.50;;;21.43;100.00
6200;BME280;3133;43.214;27.906;2023-08-08T02:21:21;100224.34;;;21.54;100.00
6200;BME280;3133;43.214;27.906;2023-08-08T02:23:48;100199.75;;;21.51;100.00
6200;BME280;3133;43.214;27.906;2023-08-08T02:26:15;100196.69;;;21.41;100.00
6200;BME280;3133;43.214;27.906;2023-08-08T02:28:41;100204.34;;;21.30;100.00
6200;BME280;3133;43.214;27.906;2023-08-08T02:31:08;100233.94;;;21.57;100.00
6200;BME280;3133;43.214;27.906;2023-08-08T02:33:37;100155.44;;;20.98;100.00
6200;BME280;3133;43.214;27.906;2023-08-08T02:36:04;100243.09;;;21.51;100.00
6200;BME280;3133;43.214;27.906;2023-08-08T02:38:31;100203.13;;;21.18;100.00
6200;BME280;3133;43.214;27.906;2023-08-08T02:40:57;100251.97;;;21.50;100.00
6200;BME280;3133;43.214;27.906;2023-08-08T02:43:25;100261.72;;;21.50;100.00
6200;BME280;3133;43.214;27.906;2023-08-08T02:45:51;100245.53;;;21.37;100.00
6200;BME280;3133;43.214;27.906;2023-08-08T02:48:18;100267.00;;;21.50;100.00
6200;BME280;3133;43.214;27.906;2023-08-08T02:50:46;100228.66;;;21.21;100.00
6200;BME280;3133;43.214;27.906;2023-08-08T02:53:13;100251.63;;;21.39;100.00
6200;BME280;3133;43.214;27.906;2023-08-08T02:55:40;100243.53;;;21.42;100.00
6200;BME280;3133;43.214;27.906;2023-08-08T02:58:07;100268.63;;;21.54;100.00
6200;BME280;3133;43.214;27.906;2023-08-08T03:00:34;100270.41;;;21.53;100.00
6200;BME280;3133;43.214;27.906;2023-08-08T03:03:00;100246.19;;;21.42;100.00
6200;BME280;3133;43.214;27.906;2023-08-08T03:05:28;100270.09;;;21.59;100.00
6200;BME280;3133;43.214;27.906;2023-08-08T03:07:58;100275.97;;;21.66;100.00
6200;BME280;3133;43.214;27.906;2023-08-08T03:10:25;100278.47;;;21.69;100.00
6200;BME280;3133;43.214;27.906;2023-08-08T03:12:52;100281.94;;;21.52;100.00
6200;BME280;3133;43.214;27.906;2023-08-08T03:15:19;100227.44;;;21.28;100.00
6200;BME280;3133;43.214;27.906;2023-08-08T03:17:46;100291.34;;;21.59;100.00
6200;BME280;3133;43.214;27.906;2023-08-08T03:20:13;100233.88;;;21.22;100.00
6200;BME280;3133;43.214;27.906;2023-08-08T03:22:39;100291.63;;;21.53;100.00
6200;BME280;3133;43.214;27.906;2023-08-08T03:25:08;100293.28;;;21.37;100.00
6200;BME280;3133;43.214;27.906;2023-08-08T03:27:35;100300.72;;;21.48;100.00
6200;BME280;3133;43.214;27.906;2023-08-08T03:30:02;100258.41;;;21.27;100.00
6200;BME280;3133;43.214;27.906;2023-08-08T03:32:29;100301.88;;;21.61;100.00
6200;BME280;3133;43.214;27.906;2023-08-08T03:34:55;100265.63;;;21.43;100.00
6200;BME280;3133;43.214;27.906;2023-08-08T03:37:22;100309.47;;;21.68;100.00
6200;BME280;3133;43.214;27.906;2023-08-08T03:39:49;100298.69;;;21.71;100.00
6200;BME280;3133;43.214;27.906;2023-08-08T03:42:17;100280.16;;;21.53;100.00
6200;BME280;3133;43.214;27.906;2023-08-08T03:44:44;100256.56;;;21.47;100.00
6200;BME280;3133;43.214;27.906;2023-08-08T03:47:11;100297.91;;;21.69;100.00
6200;BME280;3133;43.214;27.906;2023-08-08T03:49:38;100302.38;;;21.50;100.00
6200;BME280;3133;43.214;27.906;2023-08-08T03:52:05;100305.69;;;21.55;100.00
6200;BME280;3133;43.214;27.906;2023-08-08T03:54:32;100270.72;;;21.28;100.00
6200;BME280;3133;43.214;27.906;2023-08-08T03:56:59;100308.13;;;21.60;100.00
6200;BME280;3133;43.214;27.906;2023-08-08T03:59:28;100263.88;;;21.42;100.00
6200;BME280;3133;43.214;27.906;2023-08-08T04:01:55;100280.75;;;21.41;100.00
6200;BME280;3133;43.214;27.906;2023-08-08T04:04:22;100318.31;;;21.50;100.00
6200;BME280;3133;43.214;27.906;2023-08-08T04:06:49;100317.19;;;21.56;100.00
6200;BME280;3133;43.214;27.906;2023-08-08T04:09:15;100325.97;;;21.56;100.00
6200;BME280;3133;43.214;27.906;2023-08-08T04:11:42;100335.03;;;21.52;100.00
6200;BME280;3133;43.214;27.906;2023-08-08T04:14:09;100334.03;;;21.55;100.00
6200;BME280;3133;43.214;27.906;2023-08-08T04:16:38;100317.69;;;21.45;100.00
6200;BME280;3133;43.214;27.906;2023-08-08T04:19:05;100178.53;;;20.40;100.00
6200;BME280;3133;43.214;27.906;2023-08-08T04:21:32;100348.75;;;21.43;100.00
6200;BME280;3133;43.214;27.906;2023-08-08T04:24:02;100306.56;;;21.18;100.00
6200;BME280;3133;43.214;27.906;2023-08-08T04:26:29;100322.19;;;21.24;100.00
6200;BME280;3133;43.214;27.906;2023-08-08T04:28:56;100337.19;;;21.44;100.00
6200;BME280;3133;43.214;27.906;2023-08-08T04:31:23;100359.47;;;21.59;100.00
6200;BME280;3133;43.214;27.906;2023-08-08T04:33:52;100358.41;;;21.63;100.00
6200;BME280;3133;43.214;27.906;2023-08-08T04:36:23;100361.72;;;21.49;100.00
6200;BME280;3133;43.214;27.906;2023-08-08T04:38:50;100359.19;;;21.65;100.00
6200;BME280;3133;43.214;27.906;2023-08-08T04:41:17;100353.75;;;21.68;100.00
6200;BME280;3133;43.214;27.906;2023-08-08T04:43:44;100359.69;;;21.73;100.00
6200;BME280;3133;43.214;27.906;2023-08-08T04:46:13;100356.25;;;21.52;100.00
6200;BME280;3133;43.214;27.906;2023-08-08T04:48:40;100375.69;;;21.71;100.00
6200;BME280;3133;43.214;27.906;2023-08-08T04:51:08;100379.78;;;21.78;100.00
6200;BME280;3133;43.214;27.906;2023-08-08T04:53:35;100376.84;;;21.84;100.00
6200;BME280;3133;43.214;27.906;2023-08-08T04:56:02;100353.16;;;21.61;100.00
6200;BME280;3133;43.214;27.906;2023-08-08T04:58:29;100371.31;;;21.70;100.00
6200;BME280;3133;43.214;27.906;2023-08-08T05:00:56;100389.59;;;21.76;100.00
6200;BME280;3133;43.214;27.906;2023-08-08T05:03:23;100365.78;;;21.75;100.00
6200;BME280;3133;43.214;27.906;2023-08-08T05:05:49;100363.84;;;21.78;100.00
6200;BME280;3133;43.214;27.906;2023-08-08T05:08:20;100364.50;;;21.65;100.00
6200;BME280;3133;43.214;27.906;2023-08-08T05:10:47;100391.06;;;21.83;100.00
6200;BME280;3133;43.214;27.906;2023-08-08T05:13:14;100399.91;;;21.84;100.00
6200;BME280;3133;43.214;27.906;2023-08-08T05:15:43;100396.47;;;21.80;100.00
6200;BME280;3133;43.214;27.906;2023-08-08T05:18:09;100398.53;;;21.94;100.00
6200;BME280;3133;43.214;27.906;2023-08-08T05:20:38;100319.03;;;21.54;100.00
6200;BME280;3133;43.214;27.906;2023-08-08T05:23:05;100361.78;;;21.85;100.00
6200;BME280;3133;43.214;27.906;2023-08-08T05:25:34;100366.78;;;21.91;100.00
6200;BME280;3133;43.214;27.906;2023-08-08T05:28:00;100377.84;;;22.00;100.00
6200;BME280;3133;43.214;27.906;2023-08-08T05:30:28;100423.72;;;22.21;100.00
6200;BME280;3133;43.214;27.906;2023-08-08T05:33:01;100409.34;;;22.25;100.00
6200;BME280;3133;43.214;27.906;2023-08-08T05:35:28;100234.03;;;21.19;100.00
6200;BME280;3133;43.214;27.906;2023-08-08T05:37:54;100308.44;;;21.54;100.00
6200;BME280;3133;43.214;27.906;2023-08-08T05:40:21;100334.63;;;21.43;100.00
6200;BME280;3133;43.214;27.906;2023-08-08T05:42:50;100366.28;;;21.46;100.00
6200;BME280;3133;43.214;27.906;2023-08-08T05:45:17;100319.56;;;21.06;100.00
6200;BME280;3133;43.214;27.906;2023-08-08T05:47:44;100426.22;;;21.88;100.00
6200;BME280;3133;43.214;27.906;2023-08-08T05:50:11;100332.75;;;21.26;100.00
6200;BME280;3133;43.214;27.906;2023-08-08T05:52:37;100461.53;;;22.09;100.00
6200;BME280;3133;43.214;27.906;2023-08-08T05:55:06;100347.81;;;21.44;100.00
6200;BME280;3133;43.214;27.906;2023-08-08T05:57:32;100473.50;;;22.18;100.00
6200;BME280;3133;43.214;27.906;2023-08-08T06:00:01;100466.50;;;22.34;100.00
6200;BME280;3133;43.214;27.906;2023-08-08T06:02:28;100482.31;;;22.37;100.00
6200;BME280;3133;43.214;27.906;2023-08-08T06:04:55;100371.78;;;21.43;100.00
6200;BME280;3133;43.214;27.906;2023-08-08T06:07:22;100482.19;;;22.21;100.00
6200;BME280;3133;43.214;27.906;2023-08-08T06:09:50;100451.19;;;21.84;100.00
6200;BME280;3133;43.214;27.906;2023-08-08T06:12:17;100503.13;;;22.46;100.00
6200;BME280;3133;43.214;27.906;2023-08-08T06:14:44;100395.22;;;21.89;100.00
6200;BME280;3133;43.214;27.906;2023-08-08T06:17:12;100519.59;;;22.17;100.00
6200;BME280;3133;43.214;27.906;2023-08-08T06:19:39;100514.19;;;22.37;100.00
6200;BME280;3133;43.214;27.906;2023-08-08T06:22:06;100361.03;;;22.00;100.00
6200;BME280;3133;43.214;27.906;2023-08-08T06:24:33;100490.13;;;23.10;100.00
6200;BME280;3133;43.214;27.906;2023-08-08T06:27:00;100511.53;;;23.58;100.00
6200;BME280;3133;43.214;27.906;2023-08-08T06:29:27;100514.16;;;23.25;100.00
6200;BME280;3133;43.214;27.906;2023-08-08T06:31:56;100436.72;;;22.63;100.00
6200;BME280;3133;43.214;27.906;2023-08-08T06:34:24;100517.44;;;22.79;100.00
6200;BME280;3133;43.214;27.906;2023-08-08T06:36:51;100483.25;;;22.88;100.00
6200;BME280;3133;43.214;27.906;2023-08-08T06:39:18;100500.44;;;23.16;100.00
6200;BME280;3133;43.214;27.906;2023-08-08T06:41:46;100513.31;;;23.08;100.00
6200;BME280;3133;43.214;27.906;2023-08-08T06:44:13;100531.47;;;23.34;100.00
6200;BME280;3133;43.214;27.906;2023-08-08T06:46:40;100470.50;;;23.12;100.00
6200;BME280;3133;43.214;27.906;2023-08-08T06:49:07;100530.50;;;23.18;100.00
6200;BME280;3133;43.214;27.906;2023-08-08T06:51:36;100533.72;;;22.90;100.00
6200;BME280;3133;43.214;27.906;2023-08-08T06:54:03;100537.25;;;22.91;100.00
6200;BME280;3133;43.214;27.906;2023-08-08T06:56:30;100535.72;;;22.68;100.00
6200;BME280;3133;43.214;27.906;2023-08-08T06:58:57;100498.66;;;22.46;100.00
6200;BME280;3133;43.214;27.906;2023-08-08T07:01:24;100545.72;;;22.44;100.00
6200;BME280;3133;43.214;27.906;2023-08-08T07:03:51;100540.22;;;22.11;100.00
6200;BME280;3133;43.214;27.906;2023-08-08T07:06:18;100532.25;;;22.11;100.00
6200;BME280;3133;43.214;27.906;2023-08-08T07:08:46;100546.91;;;22.20;100.00
6200;BME280;3133;43.214;27.906;2023-08-08T07:11:14;100539.56;;;22.06;100.00
6200;BME280;3133;43.214;27.906;2023-08-08T07:13:42;100506.38;;;22.34;100.00
6200;BME280;3133;43.214;27.906;2023-08-08T07:16:10;100522.75;;;22.79;100.00
6200;BME280;3133;43.214;27.906;2023-08-08T07:18:37;100503.97;;;23.16;100.00
6200;BME280;3133;43.214;27.906;2023-08-08T07:21:04;100553.88;;;23.47;100.00
6200;BME280;3133;43.214;27.906;2023-08-08T07:23:31;100496.47;;;22.90;100.00
6200;BME280;3133;43.214;27.906;2023-08-08T07:26:00;100485.19;;;22.85;100.00
6200;BME280;3133;43.214;27.906;2023-08-08T07:28:26;100512.59;;;22.87;100.00
6200;BME280;3133;43.214;27.906;2023-08-08T07:30:54;100434.66;;;22.15;100.00
6200;BME280;3133;43.214;27.906;2023-08-08T07:33:22;100426.13;;;22.08;100.00
6200;BME280;3133;43.214;27.906;2023-08-08T07:35:57;100523.50;;;22.64;100.00
6200;BME280;3133;43.214;27.906;2023-08-08T07:38:24;100572.50;;;22.77;100.00
6200;BME280;3133;43.214;27.906;2023-08-08T07:40:51;100568.19;;;22.74;100.00
6200;BME280;3133;43.214;27.906;2023-08-08T07:43:20;100537.47;;;22.32;100.00
6200;BME280;3133;43.214;27.906;2023-08-08T07:45:47;100398.84;;;21.30;100.00
6200;BME280;3133;43.214;27.906;2023-08-08T07:48:14;100518.53;;;22.02;100.00
6200;BME280;3133;43.214;27.906;2023-08-08T07:50:41;100419.91;;;21.54;100.00
6200;BME280;3133;43.214;27.906;2023-08-08T07:53:08;100577.69;;;22.43;100.00
6200;BME280;3133;43.214;27.906;2023-08-08T07:55:35;100579.56;;;22.41;100.00
6200;BME280;3133;43.214;27.906;2023-08-08T07:58:01;100562.97;;;22.36;100.00
6200;BME280;3133;43.214;27.906;2023-08-08T08:00:30;100539.56;;;22.25;100.00
6200;BME280;3133;43.214;27.906;2023-08-08T08:02:58;100534.59;;;22.55;100.00
6200;BME280;3133;43.214;27.906;2023-08-08T08:05:25;100513.16;;;22.58;100.00
6200;BME280;3133;43.214;27.906;2023-08-08T08:07:53;100586.78;;;23.10;100.00
6200;BME280;3133;43.214;27.906;2023-08-08T08:10:20;100587.81;;;23.08;100.00
6200;BME280;3133;43.214;27.906;2023-08-08T08:12:47;100576.75;;;22.98;100.00
6200;BME280;3133;43.214;27.906;2023-08-08T08:15:14;100582.28;;;22.94;100.00
6200;BME280;3133;43.214;27.906;2023-08-08T08:17:42;100509.75;;;22.73;100.00
6200;BME280;3133;43.214;27.906;2023-08-08T08:20:09;100534.94;;;22.83;100.00
6200;BME280;3133;43.214;27.906;2023-08-08T08:22:38;100567.66;;;23.02;100.00
6200;BME280;3133;43.214;27.906;2023-08-08T08:25:06;100422.59;;;22.27;100.00
6200;BME280;3133;43.214;27.906;2023-08-08T08:27:35;100547.00;;;22.90;100.00
6200;BME280;3133;43.214;27.906;2023-08-08T08:30:02;100542.34;;;23.12;100.00
6200;BME280;3133;43.214;27.906;2023-08-08T08:32:32;100528.94;;;23.14;100.00
6200;BME280;3133;43.214;27.906;2023-08-08T08:35:03;100571.22;;;23.20;100.00
6200;BME280;3133;43.214;27.906;2023-08-08T08:37:32;100549.88;;;23.21;100.00
6200;BME280;3133;43.214;27.906;2023-08-08T08:39:59;100586.25;;;23.21;100.00
6200;BME280;3133;43.214;27.906;2023-08-08T08:42:28;100575.44;;;23.24;100.00
6200;BME280;3133;43.214;27.906;2023-08-08T08:44:57;100575.44;;;23.24;100.00
6200;BME280;3133;43.214;27.906;2023-08-08T08:47:29;100565.75;;;23.23;100.00
6200;BME280;3133;43.214;27.906;2023-08-08T08:49:57;100471.19;;;22.64;100.00
6200;BME280;3133;43.214;27.906;2023-08-08T08:52:28;100581.56;;;23.43;100.00
6200;BME280;3133;43.214;27.906;2023-08-08T08:54:55;100504.84;;;23.17;100.00
6200;BME280;3133;43.214;27.906;2023-08-08T08:57:23;100422.38;;;22.48;100.00
6200;BME280;3133;43.214;27.906;2023-08-08T08:59:51;100459.47;;;22.85;100.00
6200;BME280;3133;43.214;27.906;2023-08-08T09:02:19;100540.22;;;23.02;100.00
6200;BME280;3133;43.214;27.906;2023-08-08T09:04:46;100571.94;;;23.23;100.00
6200;BME280;3133;43.214;27.906;2023-08-08T09:07:14;100533.88;;;22.87;100.00
6200;BME280;3133;43.214;27.906;2023-08-08T09:09:44;100585.28;;;23.05;100.00
6200;BME280;3133;43.214;27.906;2023-08-08T09:12:11;100558.84;;;22.84;100.00
6200;BME280;3133;43.214;27.906;2023-08-08T09:14:40;100437.50;;;21.93;100.00
6200;BME280;3133;43.214;27.906;2023-08-08T09:17:10;100571.59;;;22.41;100.00
6200;BME280;3133;43.214;27.906;2023-08-08T09:19:38;100601.63;;;22.80;100.00
6200;BME280;3133;43.214;27.906;2023-08-08T09:22:05;100461.38;;;22.12;100.00
6200;BME280;3133;43.214;27.906;2023-08-08T09:24:32;100614.75;;;22.83;100.00
6200;BME280;3133;43.214;27.906;2023-08-08T09:27:00;100606.47;;;22.72;100.00
6200;BME280;3133;43.214;27.906;2023-08-08T09:29:27;100588.69;;;22.54;100.00
6200;BME280;3133;43.214;27.906;2023-08-08T09:31:55;100462.88;;;21.80;100.00
6200;BME280;3133;43.214;27.906;2023-08-08T09:34:24;100591.00;;;22.43;100.00
6200;BME280;3133;43.214;27.906;2023-08-08T09:36:52;100552.72;;;22.09;100.00
6200;BME280;3133;43.214;27.906;2023-08-08T09:39:19;100579.72;;;22.19;100.00
6200;BME280;3133;43.214;27.906;2023-08-08T09:41:46;100606.88;;;22.07;100.00
6200;BME280;3133;43.214;27.906;2023-08-08T09:44:15;100598.94;;;22.05;100.00
6200;BME280;3133;43.214;27.906;2023-08-08T09:46:42;100548.78;;;21.79;100.00
6200;BME280;3133;43.214;27.906;2023-08-08T09:49:10;100595.25;;;22.09;100.00
6200;BME280;3133;43.214;27.906;2023-08-08T09:51:38;100610.53;;;21.84;100.00
6200;BME280;3133;43.214;27.906;2023-08-08T09:54:06;100598.94;;;21.67;100.00
6200;BME280;3133;43.214;27.906;2023-08-08T09:56:34;100530.91;;;21.24;100.00
6200;BME280;3133;43.214;27.906;2023-08-08T09:59:01;100543.78;;;21.33;100.00
6200;BME280;3133;43.214;27.906;2023-08-08T10:01:32;100602.31;;;21.50;100.00
6200;BME280;3133;43.214;27.906;2023-08-08T10:03:59;100551.63;;;21.16;100.00
6200;BME280;3133;43.214;27.906;2023-08-08T10:06:26;100554.78;;;21.24;100.00
6200;BME280;3133;43.214;27.906;2023-08-08T10:08:54;100589.59;;;21.58;100.00
6200;BME280;3133;43.214;27.906;2023-08-08T10:11:23;100574.56;;;21.37;100.00
6200;BME280;3133;43.214;27.906;2023-08-08T10:13:50;100564.41;;;21.26;100.00
6200;BME280;3133;43.214;27.906;2023-08-08T10:16:19;100609.06;;;21.77;100.00
6200;BME280;3133;43.214;27.906;2023-08-08T10:18:55;100594.13;;;21.75;100.00
6200;BME280;3133;43.214;27.906;2023-08-08T10:21:23;100607.56;;;21.92;100.00
6200;BME280;3133;43.214;27.906;2023-08-08T10:24:01;100613.94;;;21.88;100.00
6200;BME280;3133;43.214;27.906;2023-08-08T10:26:29;100575.34;;;21.79;100.00
6200;BME280;3133;43.214;27.906;2023-08-08T10:28:57;100611.00;;;21.74;100.00
6200;BME280;3133;43.214;27.906;2023-08-08T10:31:24;100567.13;;;21.65;100.00
6200;BME280;3133;43.214;27.906;2023-08-08T10:34:03;100544.91;;;21.48;100.00
6200;BME280;3133;43.214;27.906;2023-08-08T10:36:45;100599.56;;;21.72;100.00
6200;BME280;3133;43.214;27.906;2023-08-08T10:39:15;100586.72;;;21.43;100.00
6200;BME280;3133;43.214;27.906;2023-08-08T10:41:48;100614.47;;;21.56;100.00
6200;BME280;3133;43.214;27.906;2023-08-08T10:44:22;100623.28;;;21.36;100.00
6200;BME280;3133;43.214;27.906;2023-08-08T10:46:50;100628.06;;;21.28;100.00
6200;BME280;3133;43.214;27.906;2023-08-08T10:49:19;100623.63;;;21.07;100.00
6200;BME280;3133;43.214;27.906;2023-08-08T10:51:47;100604.91;;;20.88;100.00
6200;BME280;3133;43.214;27.906;2023-08-08T10:54:16;100620.47;;;20.76;100.00
6200;BME280;3133;43.214;27.906;2023-08-08T10:56:50;100633.47;;;20.82;100.00
6200;BME280;3133;43.214;27.906;2023-08-08T10:59:18;100618.31;;;20.63;100.00
6200;BME280;3133;43.214;27.906;2023-08-08T11:01:46;100635.75;;;20.69;100.00
6200;BME280;3133;43.214;27.906;2023-08-08T11:04:15;100644.75;;;20.65;100.00
6200;BME280;3133;43.214;27.906;2023-08-08T11:06:43;100582.03;;;20.19;100.00
6200;BME280;3133;43.214;27.906;2023-08-08T11:09:13;100630.88;;;20.58;100.00
6200;BME280;3133;43.214;27.906;2023-08-08T11:11:41;100584.22;;;20.08;100.00
6200;BME280;3133;43.214;27.906;2023-08-08T11:14:10;100612.63;;;20.28;100.00
6200;BME280;3133;43.214;27.906;2023-08-08T11:16:37;100605.75;;;20.24;100.00
6200;BME280;3133;43.214;27.906;2023-08-08T11:19:04;100628.25;;;20.35;100.00
6200;BME280;3133;43.214;27.906;2023-08-08T11:21:39;100626.09;;;20.45;100.00
6200;BME280;3133;43.214;27.906;2023-08-08T11:24:08;100632.63;;;20.36;100.00
6200;BME280;3133;43.214;27.906;2023-08-08T11:26:35;100627.91;;;20.21;100.00
6200;BME280;3133;43.214;27.906;2023-08-08T11:29:03;100634.28;;;20.39;100.00
6200;BME280;3133;43.214;27.906;2023-08-08T11:31:31;100610.94;;;20.27;100.00
6200;BME280;3133;43.214;27.906;2023-08-08T11:33:59;100604.66;;;20.29;100.00
6200;BME280;3133;43.214;27.906;2023-08-08T11:36:30;100647.13;;;20.49;100.00
6200;BME280;3133;43.214;27.906;2023-08-08T11:39:01;100627.84;;;20.46;100.00
6200;BME280;3133;43.214;27.906;2023-08-08T11:41:35;100591.16;;;20.35;100.00
6200;BME280;3133;43.214;27.906;2023-08-08T11:44:04;100619.47;;;20.56;100.00
6200;BME280;3133;43.214;27.906;2023-08-08T11:46:34;100632.19;;;20.70;100.00
6200;BME280;3133;43.214;27.906;2023-08-08T11:49:03;100628.59;;;20.93;100.00
6200;BME280;3133;43.214;27.906;2023-08-08T11:51:33;100643.66;;;21.14;100.00
6200;BME280;3133;43.214;27.906;2023-08-08T11:54:02;100590.25;;;21.01;100.00
6200;BME280;3133;43.214;27.906;2023-08-08T11:56:34;100621.22;;;21.63;100.00
6200;BME280;3133;43.214;27.906;2023-08-08T11:59:02;100548.69;;;21.62;100.00
6200;BME280;3133;43.214;27.906;2023-08-08T12:01:32;100619.66;;;22.18;100.00
6200;BME280;3133;43.214;27.906;2023-08-08T12:04:04;100610.53;;;22.42;100.00
6200;BME280;3133;43.214;27.906;2023-08-08T12:06:32;100613.69;;;22.50;100.00
6200;BME280;3133;43.214;27.906;2023-08-08T12:09:01;100552.78;;;22.27;100.00
6200;BME280;3133;43.214;27.906;2023-08-08T12:11:28;100565.63;;;22.36;100.00
6200;BME280;3133;43.214;27.906;2023-08-08T12:14:00;100564.63;;;22.57;100.00
6200;BME280;3133;43.214;27.906;2023-08-08T12:16:28;100537.81;;;22.43;100.00
6200;BME280;3133;43.214;27.906;2023-08-08T12:18:55;100603.34;;;22.98;100.00
6200;BME280;3133;43.214;27.906;2023-08-08T12:21:25;100586.06;;;23.07;100.00
6200;BME280;3133;43.214;27.906;2023-08-08T12:23:52;100381.88;;;21.90;100.00
6200;BME280;3133;43.214;27.906;2023-08-08T12:26:19;100595.28;;;23.35;100.00
6200;BME280;3133;43.214;27.906;2023-08-08T12:28:46;100589.25;;;23.49;100.00
6200;BME280;3133;43.214;27.906;2023-08-08T12:31:15;100557.34;;;23.30;100.00
6200;BME280;3133;43.214;27.906;2023-08-08T12:33:41;100591.03;;;23.66;100.00
6200;BME280;3133;43.214;27.906;2023-08-08T12:36:08;100593.53;;;23.69;100.00
6200;BME280;3133;43.214;27.906;2023-08-08T12:38:35;100600.59;;;23.52;100.00
6200;BME280;3133;43.214;27.906;2023-08-08T12:41:02;100588.50;;;23.62;100.00
6200;BME280;3133;43.214;27.906;2023-08-08T12:43:29;100605.03;;;23.69;100.00
6200;BME280;3133;43.214;27.906;2023-08-08T12:45:56;100594.06;;;23.58;100.00
6200;BME280;3133;43.214;27.906;2023-08-08T12:48:24;100599.47;;;23.74;100.00
6200;BME280;3133;43.214;27.906;2023-08-08T12:50:51;100444.13;;;23.08;100.00
6200;BME280;3133;43.214;27.906;2023-08-08T12:53:18;100591.88;;;23.99;100.00